createdAt,value
2018-03-31T00:02:16.169Z,7.40
2018-03-31T00:04:43.620Z,7.40
2018-03-31T00:07:11.989Z,7.40
2018-03-31T00:09:40.229Z,7.50
2018-03-31T00:12:09.541Z,7.50
2018-03-31T00:14:36.868Z,7.50
2018-03-31T00:17:04.114Z,7.40
2018-03-31T00:19:31.524Z,7.30
2018-03-31T00:21:59.594Z,7.30
2018-03-31T00:24:27.602Z,7.20
2018-03-31T00:26:55.024Z,7.20
2018-03-31T00:29:23.146Z,7.20
2018-03-31T00:31:50.485Z,7.20
2018-03-31T00:34:17.904Z,7.20
2018-03-31T00:36:45.969Z,7.20
2018-03-31T00:39:13.259Z,7.20
2018-03-31T00:41:40.609Z,7.10
2018-03-31T00:44:07.956Z,7.20
2018-03-31T00:46:36.099Z,7.20
2018-03-31T00:49:03.422Z,7.20
2018-03-31T00:51:30.735Z,7.20
2018-03-31T00:53:58.055Z,7.30
2018-03-31T00:56:25.606Z,7.30
2018-03-31T00:58:53.063Z,7.30
2018-03-31T01:01:20.618Z,7.30
2018-03-31T01:03:48.018Z,7.30
2018-03-31T01:06:15.350Z,7.30
2018-03-31T01:08:42.607Z,7.30
2018-03-31T01:11:09.940Z,7.30
2018-03-31T01:13:37.265Z,7.30
2018-03-31T01:16:04.609Z,7.20
2018-03-31T01:18:31.996Z,7.20
2018-03-31T01:20:59.348Z,7.20
2018-03-31T01:23:27.368Z,7.20
2018-03-31T01:25:55.488Z,7.20
2018-03-31T01:28:22.745Z,7.20
2018-03-31T01:30:50.192Z,7.20
2018-03-31T01:33:17.548Z,7.20
2018-03-31T01:35:44.816Z,7.20
2018-03-31T01:38:12.174Z,7.20
2018-03-31T01:40:39.733Z,7.20
2018-03-31T01:43:07.053Z,7.20
2018-03-31T01:45:34.625Z,7.20
2018-03-31T01:48:02.001Z,7.20
2018-03-31T01:50:29.357Z,7.20
2018-03-31T01:52:56.812Z,7.20
2018-03-31T01:55:24.586Z,7.20
2018-03-31T01:57:51.880Z,7.20
2018-03-31T02:00:19.261Z,7.10
2018-03-31T02:02:46.736Z,7.10
2018-03-31T02:05:14.102Z,7.10
2018-03-31T02:07:41.408Z,7.00
2018-03-31T02:10:08.770Z,7.00
2018-03-31T02:12:36.106Z,7.00
2018-03-31T02:15:04.563Z,6.90
2018-03-31T02:17:32.102Z,6.90
2018-03-31T02:19:59.411Z,6.90
2018-03-31T02:22:26.706Z,6.90
2018-03-31T02:24:54.066Z,6.90
2018-03-31T02:27:21.376Z,6.90
2018-03-31T02:29:48.688Z,6.90
2018-03-31T02:32:16.081Z,6.90
2018-03-31T02:34:43.488Z,6.90
2018-03-31T02:37:10.824Z,6.90
2018-03-31T02:39:38.299Z,6.90
2018-03-31T02:42:05.754Z,6.90
2018-03-31T02:44:33.111Z,6.90
2018-03-31T02:47:00.568Z,6.90
2018-03-31T02:49:27.829Z,6.80
2018-03-31T02:51:55.185Z,6.90
2018-03-31T02:54:22.734Z,6.80
2018-03-31T02:56:50.192Z,6.80
2018-03-31T02:59:17.435Z,6.90
2018-03-31T03:01:48.609Z,6.80
2018-03-31T03:04:15.944Z,6.80
2018-03-31T03:06:43.634Z,6.80
2018-03-31T03:09:11.984Z,6.80
2018-03-31T03:11:39.265Z,6.80
2018-03-31T03:14:07.614Z,6.80
2018-03-31T03:16:35.175Z,6.80
2018-03-31T03:19:02.734Z,6.80
2018-03-31T03:21:30.229Z,6.90
2018-03-31T03:23:57.640Z,6.90
2018-03-31T03:26:24.979Z,6.80
2018-03-31T03:28:52.361Z,6.80
2018-03-31T03:31:19.816Z,6.80
2018-03-31T03:33:47.110Z,6.90
2018-03-31T03:36:15.344Z,6.80
2018-03-31T03:38:43.508Z,6.90
2018-03-31T03:41:10.765Z,6.90
2018-03-31T03:43:38.231Z,6.90
2018-03-31T03:46:05.691Z,6.90
2018-03-31T03:48:33.042Z,6.90
2018-03-31T03:51:00.395Z,6.90
2018-03-31T03:53:27.815Z,6.80
2018-03-31T03:55:55.312Z,6.80
2018-03-31T03:58:22.641Z,6.80
2018-03-31T04:00:50.199Z,6.80
2018-03-31T04:03:17.446Z,6.80
2018-03-31T04:05:44.830Z,6.70
2018-03-31T04:08:12.289Z,6.80
2018-03-31T04:10:39.744Z,6.80
2018-03-31T04:13:07.101Z,6.80
2018-03-31T04:15:34.559Z,6.80
2018-03-31T04:18:01.916Z,6.70
2018-03-31T04:20:29.369Z,6.70
2018-03-31T04:22:56.931Z,6.70
2018-03-31T04:25:24.534Z,6.70
2018-03-31T04:27:52.829Z,6.80
2018-03-31T04:30:20.326Z,6.70
2018-03-31T04:32:47.689Z,6.70
2018-03-31T04:35:14.954Z,6.70
2018-03-31T04:37:42.390Z,6.70
2018-03-31T04:40:09.748Z,6.70
2018-03-31T04:42:37.141Z,6.70
2018-03-31T04:45:05.275Z,6.70
2018-03-31T04:47:32.630Z,6.70
2018-03-31T04:49:59.929Z,6.70
2018-03-31T04:52:27.305Z,6.70
2018-03-31T04:54:54.596Z,6.80
2018-03-31T04:57:21.930Z,6.80
2018-03-31T04:59:49.284Z,6.80
2018-03-31T05:02:16.688Z,6.80
2018-03-31T05:04:44.834Z,6.80
2018-03-31T05:07:12.389Z,6.80
2018-03-31T05:09:39.745Z,6.80
2018-03-31T05:12:07.201Z,6.80
2018-03-31T05:14:34.754Z,6.80
2018-03-31T05:17:02.076Z,6.80
2018-03-31T05:19:29.471Z,6.80
2018-03-31T05:21:56.822Z,6.80
2018-03-31T05:24:24.291Z,6.80
2018-03-31T05:26:51.624Z,6.80
2018-03-31T05:29:19.312Z,6.80
2018-03-31T05:31:46.685Z,6.80
2018-03-31T05:34:14.082Z,6.90
2018-03-31T05:36:41.548Z,6.90
2018-03-31T05:39:09.088Z,6.80
2018-03-31T05:41:36.371Z,6.90
2018-03-31T05:44:03.719Z,6.80
2018-03-31T05:46:31.020Z,6.80
2018-03-31T05:48:59.078Z,6.80
2018-03-31T05:51:26.385Z,6.80
2018-03-31T05:53:53.666Z,6.80
2018-03-31T05:56:20.919Z,6.90
2018-03-31T05:58:48.535Z,6.90
2018-03-31T06:01:15.957Z,6.90
2018-03-31T06:03:43.263Z,6.90
2018-03-31T06:06:10.625Z,6.90
2018-03-31T06:08:37.927Z,6.90
2018-03-31T06:11:05.986Z,6.90
2018-03-31T06:13:33.327Z,6.90
2018-03-31T06:16:00.628Z,6.90
2018-03-31T06:18:27.923Z,6.90
2018-03-31T06:20:55.299Z,6.90
2018-03-31T06:23:22.630Z,7.00
2018-03-31T06:25:49.949Z,7.00
2018-03-31T06:28:17.352Z,7.00
2018-03-31T06:30:44.784Z,7.10
2018-03-31T06:33:12.040Z,7.20
2018-03-31T06:35:39.416Z,7.30
2018-03-31T06:38:06.684Z,7.40
2018-03-31T06:40:34.047Z,7.40
2018-03-31T06:43:01.390Z,7.40
2018-03-31T06:45:30.705Z,7.30
2018-03-31T06:47:58.776Z,7.30
2018-03-31T06:50:26.128Z,7.30
2018-03-31T06:52:53.398Z,7.30
2018-03-31T06:55:21.560Z,7.20
2018-03-31T06:57:49.708Z,7.20
2018-03-31T07:00:17.024Z,7.20
2018-03-31T07:02:44.299Z,7.20
2018-03-31T07:05:12.456Z,7.20
2018-03-31T07:07:40.977Z,7.20
2018-03-31T07:10:08.224Z,7.20
2018-03-31T07:12:35.866Z,7.20
2018-03-31T07:15:03.184Z,7.20
2018-03-31T07:17:30.542Z,7.20
2018-03-31T07:19:57.873Z,7.20
2018-03-31T07:22:25.163Z,7.20
2018-03-31T07:24:52.409Z,7.20
2018-03-31T07:27:19.860Z,7.20
2018-03-31T07:29:47.374Z,7.20
2018-03-31T07:32:14.758Z,7.20
2018-03-31T07:34:42.148Z,7.10
2018-03-31T07:37:09.510Z,7.10
2018-03-31T07:39:37.028Z,7.10
2018-03-31T07:42:04.645Z,7.10
2018-03-31T07:44:31.929Z,7.10
2018-03-31T07:46:59.252Z,7.00
2018-03-31T07:49:26.788Z,6.90
2018-03-31T07:51:54.144Z,6.90
2018-03-31T07:54:21.520Z,6.90
2018-03-31T07:56:48.931Z,6.90
2018-03-31T07:59:17.469Z,6.90
2018-03-31T08:01:44.890Z,6.90
2018-03-31T08:04:12.262Z,6.80
2018-03-31T08:06:39.642Z,6.70
2018-03-31T08:09:06.933Z,6.70
2018-03-31T08:11:34.330Z,6.70
2018-03-31T08:14:01.619Z,6.60
2018-03-31T08:16:28.898Z,6.60
2018-03-31T08:18:56.268Z,6.60
2018-03-31T08:21:23.612Z,6.70
2018-03-31T08:23:50.944Z,6.70
2018-03-31T08:26:18.676Z,6.80
2018-03-31T08:28:46.013Z,6.90
2018-03-31T08:31:13.415Z,6.90
2018-03-31T08:33:41.781Z,7.10
2018-03-31T08:36:10.469Z,7.00
2018-03-31T08:38:37.845Z,7.20
2018-03-31T08:41:05.954Z,7.30
2018-03-31T08:43:34.114Z,7.30
2018-03-31T08:46:01.462Z,7.30
2018-03-31T08:48:28.813Z,7.40
2018-03-31T08:50:56.097Z,7.40
2018-03-31T08:53:23.662Z,7.40
2018-03-31T08:55:51.253Z,7.40
2018-03-31T08:58:19.158Z,7.40
2018-03-31T09:00:46.537Z,7.40
2018-03-31T09:03:13.955Z,7.30
2018-03-31T09:05:42.031Z,7.50
2018-03-31T09:08:09.490Z,7.40
2018-03-31T09:10:37.618Z,7.80
2018-03-31T09:13:04.942Z,7.70
2018-03-31T09:17:57.351Z,8.00
2018-03-31T09:20:25.444Z,8.10
2018-03-31T09:22:53.539Z,8.40
2018-03-31T09:25:20.968Z,8.40
2018-03-31T09:27:49.011Z,8.60
2018-03-31T09:30:16.428Z,8.60
2018-03-31T09:32:43.778Z,8.80
2018-03-31T09:35:11.077Z,8.90
2018-03-31T09:37:38.367Z,8.90
2018-03-31T09:40:05.710Z,9.10
2018-03-31T09:42:33.812Z,9.30
2018-03-31T09:45:01.118Z,9.30
2018-03-31T09:47:28.490Z,9.50
2018-03-31T09:49:56.593Z,9.80
2018-03-31T09:52:23.863Z,9.80
2018-03-31T09:54:51.442Z,9.90
2018-03-31T09:57:18.745Z,10.10
2018-03-31T09:59:51.339Z,10.60
2018-03-31T10:02:18.849Z,10.60
2018-03-31T10:04:46.126Z,10.90
2018-03-31T10:07:14.161Z,11.70
2018-03-31T10:09:41.473Z,11.60
2018-03-31T10:12:08.786Z,12.00
2018-03-31T10:14:36.114Z,12.20
2018-03-31T10:17:03.483Z,12.50
2018-03-31T10:19:30.762Z,12.60
2018-03-31T10:21:58.132Z,12.70
2018-03-31T10:24:25.499Z,13.00
2018-03-31T10:26:52.925Z,13.20
2018-03-31T10:29:21.101Z,13.20
2018-03-31T10:31:49.305Z,13.00
2018-03-31T10:34:16.689Z,13.00
2018-03-31T10:36:43.957Z,12.90
2018-03-31T10:39:11.477Z,12.80
2018-03-31T10:41:38.792Z,12.70
2018-03-31T10:44:06.080Z,12.70
2018-03-31T10:46:33.478Z,12.80
2018-03-31T10:49:00.838Z,12.80
2018-03-31T10:51:28.119Z,12.90
2018-03-31T10:53:56.328Z,12.90
2018-03-31T10:56:23.655Z,12.90
2018-03-31T10:58:51.049Z,13.00
2018-03-31T11:01:18.519Z,13.10
2018-03-31T11:03:45.886Z,13.20
2018-03-31T11:06:13.193Z,13.40
2018-03-31T11:08:40.540Z,13.50
2018-03-31T11:11:07.812Z,13.60
2018-03-31T11:13:35.089Z,13.60
2018-03-31T11:16:02.454Z,13.60
2018-03-31T11:18:33.433Z,13.60
2018-03-31T11:21:00.704Z,13.60
2018-03-31T11:23:28.008Z,13.60
2018-03-31T11:25:55.378Z,13.70
2018-03-31T11:28:23.449Z,14.10
2018-03-31T11:30:50.906Z,14.10
2018-03-31T11:33:18.218Z,14.10
2018-03-31T11:35:45.574Z,14.20
2018-03-31T11:38:13.688Z,14.40
2018-03-31T11:40:41.749Z,14.50
2018-03-31T11:43:09.424Z,14.50
2018-03-31T11:45:37.522Z,14.30
2018-03-31T11:48:04.857Z,14.30
2018-03-31T11:50:33.409Z,14.00
2018-03-31T11:53:00.740Z,13.90
2018-03-31T11:55:28.080Z,13.80
2018-03-31T11:57:55.439Z,13.60
2018-03-31T12:00:22.862Z,13.40
2018-03-31T12:02:50.934Z,13.00
2018-03-31T12:05:19.025Z,12.80
2018-03-31T12:07:46.380Z,12.80
2018-03-31T12:10:13.737Z,12.60
2018-03-31T12:12:41.017Z,12.50
2018-03-31T12:15:08.439Z,12.50
2018-03-31T12:17:35.827Z,12.50
2018-03-31T12:20:03.164Z,12.50
2018-03-31T12:22:30.571Z,12.40
2018-03-31T12:24:57.871Z,12.40
2018-03-31T12:27:25.147Z,12.50
2018-03-31T12:29:52.524Z,12.90
2018-03-31T12:32:19.818Z,13.40
2018-03-31T12:34:47.167Z,14.00
2018-03-31T12:37:15.308Z,14.70
2018-03-31T12:39:42.628Z,14.60
2018-03-31T12:42:09.953Z,14.80
2018-03-31T12:44:37.354Z,14.80
2018-03-31T12:47:04.691Z,14.70
2018-03-31T12:49:31.986Z,14.50
2018-03-31T12:51:59.331Z,14.40
2018-03-31T12:54:26.653Z,14.20
2018-03-31T12:56:53.940Z,14.00
2018-03-31T12:59:21.270Z,13.90
2018-03-31T13:01:48.677Z,13.70
2018-03-31T13:04:16.686Z,13.60
2018-03-31T13:06:44.063Z,13.50
2018-03-31T13:09:11.380Z,13.50
2018-03-31T13:11:38.725Z,13.60
2018-03-31T13:14:06.907Z,13.60
2018-03-31T13:16:34.256Z,13.60
2018-03-31T13:19:01.586Z,13.80
2018-03-31T13:21:28.903Z,13.90
2018-03-31T13:23:56.176Z,14.00
2018-03-31T13:26:24.345Z,13.90
2018-03-31T13:28:51.716Z,13.90
2018-03-31T13:31:19.013Z,13.90
2018-03-31T13:33:46.334Z,13.80
2018-03-31T13:36:14.412Z,13.60
2018-03-31T13:38:42.536Z,13.60
2018-03-31T13:41:09.831Z,13.60
2018-03-31T13:43:37.911Z,13.60
2018-03-31T13:46:05.992Z,13.60
2018-03-31T13:48:33.381Z,13.60
2018-03-31T13:51:00.736Z,13.60
2018-03-31T13:53:28.053Z,13.60
2018-03-31T13:55:55.376Z,13.60
2018-03-31T13:58:22.749Z,13.50
2018-03-31T14:00:50.823Z,13.40
2018-03-31T14:03:18.913Z,13.30
2018-03-31T14:05:46.293Z,13.30
2018-03-31T14:08:13.596Z,13.10
2018-03-31T14:10:41.687Z,13.10
2018-03-31T14:13:09.869Z,12.90
2018-03-31T14:15:37.433Z,12.90
2018-03-31T14:18:04.771Z,12.90
2018-03-31T14:20:32.911Z,12.90
2018-03-31T14:23:00.276Z,12.90
2018-03-31T14:25:27.577Z,12.90
2018-03-31T14:27:55.040Z,12.80
2018-03-31T14:30:22.387Z,12.80
2018-03-31T14:32:49.767Z,12.70
2018-03-31T14:35:17.160Z,12.70
2018-03-31T14:37:44.550Z,12.60
2018-03-31T14:40:12.649Z,12.40
2018-03-31T14:42:40.078Z,12.40
2018-03-31T14:45:07.389Z,12.30
2018-03-31T14:47:34.667Z,12.30
2018-03-31T14:50:02.822Z,12.20
2018-03-31T14:52:30.152Z,12.20
2018-03-31T14:54:57.440Z,12.10
2018-03-31T14:57:25.625Z,12.20
2018-03-31T14:59:53.731Z,12.20
2018-03-31T15:02:21.148Z,12.20
2018-03-31T15:04:49.383Z,12.10
2018-03-31T15:07:16.755Z,12.20
2018-03-31T15:09:44.095Z,12.10
2018-03-31T15:12:11.478Z,12.00
2018-03-31T15:14:38.800Z,11.80
2018-03-31T15:17:06.117Z,11.70
2018-03-31T15:19:33.498Z,11.70
2018-03-31T15:22:00.748Z,11.60
2018-03-31T15:24:28.141Z,11.50
2018-03-31T15:26:55.600Z,11.50
2018-03-31T15:29:23.736Z,11.40
2018-03-31T15:31:51.200Z,11.40
2018-03-31T15:34:18.593Z,11.40
2018-03-31T15:36:46.625Z,11.30
2018-03-31T15:39:13.995Z,11.20
2018-03-31T15:41:41.298Z,11.20
2018-03-31T15:44:08.623Z,11.20
2018-03-31T15:46:37.493Z,11.10
2018-03-31T15:49:04.965Z,11.10
2018-03-31T15:51:32.392Z,11.10
2018-03-31T15:53:59.808Z,11.00
2018-03-31T15:56:27.213Z,11.00
2018-03-31T15:58:54.560Z,10.90
2018-03-31T16:01:21.986Z,10.90
2018-03-31T16:03:49.435Z,10.90
2018-03-31T16:06:17.487Z,10.90
2018-03-31T16:08:44.782Z,10.90
2018-03-31T16:11:12.341Z,10.90
2018-03-31T16:13:39.626Z,11.00
2018-03-31T16:16:06.891Z,11.00
2018-03-31T16:18:34.317Z,11.00
2018-03-31T16:21:01.689Z,11.10
2018-03-31T16:23:28.970Z,11.10
2018-03-31T16:25:56.447Z,11.20
2018-03-31T16:28:23.742Z,11.30
2018-03-31T16:30:51.159Z,11.40
2018-03-31T16:33:18.695Z,11.50
2018-03-31T16:35:46.071Z,11.60
2018-03-31T16:38:13.902Z,11.60
2018-03-31T16:40:41.260Z,11.50
2018-03-31T16:43:08.629Z,11.40
2018-03-31T16:45:36.785Z,11.20
2018-03-31T16:48:04.176Z,11.20
2018-03-31T16:50:32.252Z,11.00
2018-03-31T16:53:00.347Z,10.80
2018-03-31T16:55:27.761Z,10.80
2018-03-31T16:57:55.861Z,10.60
2018-03-31T17:00:23.190Z,10.60
2018-03-31T17:02:51.295Z,10.40
2018-03-31T17:05:18.678Z,10.40
2018-03-31T17:07:45.978Z,10.30
2018-03-31T17:10:14.120Z,10.10
2018-03-31T17:12:41.402Z,10.10
2018-03-31T17:15:09.448Z,10.00
2018-03-31T17:17:36.914Z,10.00
2018-03-31T17:20:04.208Z,9.90
2018-03-31T17:22:31.742Z,9.90
2018-03-31T17:24:59.950Z,9.80
2018-03-31T17:27:27.296Z,9.70
2018-03-31T17:29:54.727Z,9.80
2018-03-31T17:32:22.903Z,9.60
2018-03-31T17:34:51.161Z,9.60
2018-03-31T17:37:18.435Z,9.60
2018-03-31T17:39:45.833Z,9.50
2018-03-31T17:42:13.980Z,9.50
2018-03-31T17:44:41.291Z,9.50
2018-03-31T17:47:08.599Z,9.50
2018-03-31T17:49:35.938Z,9.40
2018-03-31T17:52:03.193Z,9.40
2018-03-31T17:54:30.548Z,9.40
2018-03-31T17:56:57.876Z,9.30
2018-03-31T17:59:25.248Z,9.30
2018-03-31T18:01:53.429Z,9.20
2018-03-31T18:04:21.497Z,9.20
2018-03-31T18:06:49.613Z,9.10
2018-03-31T18:09:16.946Z,9.10
2018-03-31T18:11:44.357Z,9.10
2018-03-31T18:14:11.655Z,9.20
2018-03-31T18:16:39.044Z,9.20
2018-03-31T18:19:06.404Z,9.20
2018-03-31T18:21:33.757Z,9.30
2018-03-31T18:24:01.150Z,9.30
2018-03-31T18:26:29.228Z,9.20
2018-03-31T18:28:57.358Z,9.20
2018-03-31T18:31:24.747Z,9.20
2018-03-31T18:33:52.147Z,9.20
2018-03-31T18:36:19.437Z,9.20
2018-03-31T18:38:46.828Z,9.20
2018-03-31T18:41:14.139Z,9.20
2018-03-31T18:43:41.453Z,9.20
2018-03-31T18:46:08.832Z,9.20
2018-03-31T18:48:36.115Z,9.20
2018-03-31T18:51:03.388Z,9.20
2018-03-31T18:53:31.494Z,9.20
2018-03-31T18:55:58.849Z,9.10
2018-03-31T18:58:26.257Z,9.00
2018-03-31T19:00:54.415Z,8.90
2018-03-31T19:03:21.738Z,8.80
2018-03-31T19:05:49.041Z,8.80
2018-03-31T19:08:17.130Z,8.80
2018-03-31T19:10:45.432Z,8.80
2018-03-31T19:13:12.750Z,8.80
2018-03-31T19:15:40.856Z,8.90
2018-03-31T19:18:08.207Z,8.90
2018-03-31T19:20:35.504Z,9.00
2018-03-31T19:23:02.800Z,8.90
2018-03-31T19:25:35.221Z,8.90
2018-03-31T19:28:02.484Z,8.80
2018-03-31T19:30:35.393Z,8.70
2018-03-31T19:33:03.422Z,8.50
2018-03-31T19:35:36.930Z,8.50
2018-03-31T19:38:04.306Z,8.50
2018-03-31T19:40:31.637Z,8.50
2018-03-31T19:42:59.063Z,8.40
2018-03-31T19:45:26.384Z,8.20
2018-03-31T19:47:54.457Z,7.90
2018-03-31T19:50:22.589Z,7.70
2018-03-31T19:52:49.881Z,7.70
2018-03-31T19:55:17.997Z,7.60
2018-03-31T19:57:45.311Z,7.50
2018-03-31T20:00:13.430Z,7.40
2018-03-31T20:02:40.736Z,7.40
2018-03-31T20:05:08.845Z,7.40
2018-03-31T20:07:36.756Z,7.30
2018-03-31T20:10:04.014Z,7.30
2018-03-31T20:12:31.455Z,7.30
2018-03-31T20:14:58.772Z,7.30
2018-03-31T20:17:26.049Z,7.20
2018-03-31T20:19:53.430Z,7.20
2018-03-31T20:22:20.777Z,7.10
2018-03-31T20:24:48.125Z,7.10
2018-03-31T20:27:15.500Z,7.10
2018-03-31T20:29:42.833Z,7.20
2018-03-31T20:32:10.212Z,7.30
2018-03-31T20:34:38.401Z,7.30
2018-03-31T20:37:06.433Z,7.30
2018-03-31T20:39:33.710Z,7.30
2018-03-31T20:42:01.053Z,7.30
2018-03-31T20:44:29.177Z,7.40
2018-03-31T20:46:56.786Z,7.40
2018-03-31T20:49:24.177Z,7.40
2018-03-31T20:51:51.566Z,7.40
2018-03-31T20:54:19.085Z,7.50
2018-03-31T20:56:46.629Z,7.70
2018-03-31T20:59:13.882Z,7.80
2018-03-31T21:01:41.193Z,7.90
2018-03-31T21:04:08.570Z,8.10
2018-03-31T21:06:36.696Z,8.20
2018-03-31T21:09:04.002Z,8.20
2018-03-31T21:11:31.386Z,8.30
2018-03-31T21:13:59.405Z,8.50
2018-03-31T21:16:26.673Z,8.50
2018-03-31T21:18:54.039Z,8.50
2018-03-31T21:21:21.313Z,8.60
2018-03-31T21:23:49.371Z,8.60
2018-03-31T21:26:17.524Z,8.70
2018-03-31T21:28:44.920Z,8.60
2018-03-31T21:31:12.245Z,8.70
2018-03-31T21:33:39.545Z,8.70
2018-03-31T21:36:06.818Z,8.60
2018-03-31T21:38:34.214Z,8.50
2018-03-31T21:41:01.604Z,8.50
2018-03-31T21:43:28.897Z,8.40
2018-03-31T21:45:56.365Z,8.40
2018-03-31T21:48:23.777Z,8.40
2018-03-31T21:50:51.046Z,8.30
2018-03-31T21:53:18.365Z,8.20
2018-03-31T21:55:46.564Z,8.10
2018-03-31T21:58:13.864Z,8.10
2018-03-31T22:00:41.134Z,8.00
2018-03-31T22:03:08.457Z,8.00
2018-03-31T22:05:35.769Z,8.00
2018-03-31T22:08:03.030Z,8.00
2018-03-31T22:10:30.399Z,7.90
2018-03-31T22:13:03.336Z,7.90
2018-03-31T22:15:36.900Z,7.80
2018-03-31T22:18:04.185Z,7.80
2018-03-31T22:20:32.213Z,7.80
2018-03-31T22:22:59.621Z,7.70
2018-03-31T22:25:28.136Z,7.70
2018-03-31T22:27:55.759Z,7.70
2018-03-31T22:30:23.162Z,7.80
2018-03-31T22:32:50.401Z,7.80
2018-03-31T22:35:17.795Z,7.80
2018-03-31T22:37:45.143Z,7.70
2018-03-31T22:40:12.707Z,7.70
2018-03-31T22:42:39.997Z,7.70
2018-03-31T22:45:08.200Z,7.70
2018-03-31T22:47:35.547Z,7.70
2018-03-31T22:50:02.786Z,7.60
2018-03-31T22:52:31.005Z,7.50
2018-03-31T22:54:58.380Z,7.50
2018-03-31T22:57:25.699Z,7.50
2018-03-31T22:59:53.087Z,7.40
2018-03-31T23:02:20.772Z,7.40
2018-03-31T23:04:48.059Z,7.30
2018-03-31T23:07:15.407Z,7.30
2018-03-31T23:09:42.717Z,7.30
2018-03-31T23:12:10.007Z,7.20
2018-03-31T23:14:38.142Z,7.20
2018-03-31T23:17:05.437Z,7.20
2018-03-31T23:19:32.824Z,7.20
2018-03-31T23:22:00.144Z,7.10
2018-03-31T23:24:28.195Z,7.10
2018-03-31T23:26:55.482Z,7.10
2018-03-31T23:29:22.836Z,7.00
2018-03-31T23:31:50.135Z,6.90
2018-03-31T23:34:17.491Z,6.80
2018-03-31T23:36:44.862Z,6.70
2018-03-31T23:39:12.430Z,6.50
2018-03-31T23:41:40.602Z,6.30
2018-03-31T23:44:07.933Z,6.30
2018-03-31T23:46:35.260Z,6.30
2018-03-31T23:49:03.316Z,6.00
2018-03-31T23:51:30.628Z,6.00
2018-03-31T23:53:57.954Z,5.90
2018-03-31T23:56:25.245Z,5.80
2018-03-31T23:58:52.640Z,5.80
